sensor_id;sensor_type;location;lat;lon;timestamp;temperature;humidity
20091;DHT22;10205;49.678;6.560;2024-01-30T00:00:47;9.10;76.80
20091;DHT22;10205;49.678;6.560;2024-01-30T00:03:16;9.10;76.80
20091;DHT22;10205;49.678;6.560;2024-01-30T00:05:43;9.10;76.80
20091;DHT22;10205;49.678;6.560;2024-01-30T00:08:10;9.00;76.80
20091;DHT22;10205;49.678;6.560;2024-01-30T00:10:40;9.00;76.70
20091;DHT22;10205;49.678;6.560;2024-01-30T00:13:08;9.00;76.80
20091;DHT22;10205;49.678;6.560;2024-01-30T00:15:36;9.00;76.90
20091;DHT22;10205;49.678;6.560;2024-01-30T00:18:03;8.90;77.60
20091;DHT22;10205;49.678;6.560;2024-01-30T00:20:34;8.90;76.80
20091;DHT22;10205;49.678;6.560;2024-01-30T00:23:02;8.90;77.00
20091;DHT22;10205;49.678;6.560;2024-01-30T00:25:37;8.90;76.90
20091;DHT22;10205;49.678;6.560;2024-01-30T00:28:04;8.90;76.80
20091;DHT22;10205;49.678;6.560;2024-01-30T00:30:32;8.80;76.80
20091;DHT22;10205;49.678;6.560;2024-01-30T00:32:59;8.80;76.80
20091;DHT22;10205;49.678;6.560;2024-01-30T00:35:26;8.80;76.90
20091;DHT22;10205;49.678;6.560;2024-01-30T00:37:57;8.80;76.90
20091;DHT22;10205;49.678;6.560;2024-01-30T00:40:24;8.80;77.00
20091;DHT22;10205;49.678;6.560;2024-01-30T00:42:53;8.70;76.80
20091;DHT22;10205;49.678;6.560;2024-01-30T00:45:20;8.70;76.80
20091;DHT22;10205;49.678;6.560;2024-01-30T00:47:49;8.70;76.80
20091;DHT22;10205;49.678;6.560;2024-01-30T00:50:16;8.70;76.90
20091;DHT22;10205;49.678;6.560;2024-01-30T00:52:44;8.70;76.90
20091;DHT22;10205;49.678;6.560;2024-01-30T00:55:13;8.60;76.90
20091;DHT22;10205;49.678;6.560;2024-01-30T00:57:42;8.60;76.90
20091;DHT22;10205;49.678;6.560;2024-01-30T01:00:10;8.60;76.90
20091;DHT22;10205;49.678;6.560;2024-01-30T01:02:42;8.60;76.90
20091;DHT22;10205;49.678;6.560;2024-01-30T01:05:10;8.50;76.80
20091;DHT22;10205;49.678;6.560;2024-01-30T01:07:38;8.50;76.90
20091;DHT22;10205;49.678;6.560;2024-01-30T01:10:06;8.50;76.90
20091;DHT22;10205;49.678;6.560;2024-01-30T01:12:35;8.50;76.90
20091;DHT22;10205;49.678;6.560;2024-01-30T01:15:03;8.50;76.90
20091;DHT22;10205;49.678;6.560;2024-01-30T01:17:30;8.50;76.90
20091;DHT22;10205;49.678;6.560;2024-01-30T01:19:57;8.40;77.70
20091;DHT22;10205;49.678;6.560;2024-01-30T01:22:25;8.40;76.90
20091;DHT22;10205;49.678;6.560;2024-01-30T01:24:55;8.40;76.90
20091;DHT22;10205;49.678;6.560;2024-01-30T01:27:23;8.40;76.90
20091;DHT22;10205;49.678;6.560;2024-01-30T01:29:53;8.40;77.00
20091;DHT22;10205;49.678;6.560;2024-01-30T01:32:20;8.40;77.00
20091;DHT22;10205;49.678;6.560;2024-01-30T01:34:47;8.30;76.90
20091;DHT22;10205;49.678;6.560;2024-01-30T01:37:16;8.30;76.90
20091;DHT22;10205;49.678;6.560;2024-01-30T01:39:43;8.30;77.00
20091;DHT22;10205;49.678;6.560;2024-01-30T01:42:11;8.30;77.00
20091;DHT22;10205;49.678;6.560;2024-01-30T01:44:38;8.30;77.00
20091;DHT22;10205;49.678;6.560;2024-01-30T01:47:07;8.20;77.00
20091;DHT22;10205;49.678;6.560;2024-01-30T01:49:35;8.20;77.80
20091;DHT22;10205;49.678;6.560;2024-01-30T01:52:04;8.20;77.00
20091;DHT22;10205;49.678;6.560;2024-01-30T01:54:33;8.20;77.00
20091;DHT22;10205;49.678;6.560;2024-01-30T01:57:00;8.10;77.00
20091;DHT22;10205;49.678;6.560;2024-01-30T01:59:28;8.10;77.00
20091;DHT22;10205;49.678;6.560;2024-01-30T02:02:00;8.10;77.00
20091;DHT22;10205;49.678;6.560;2024-01-30T02:04:31;8.10;77.10
20091;DHT22;10205;49.678;6.560;2024-01-30T02:06:59;8.10;77.10
20091;DHT22;10205;49.678;6.560;2024-01-30T02:09:26;8.00;77.10
20091;DHT22;10205;49.678;6.560;2024-01-30T02:11:53;8.00;77.10
20091;DHT22;10205;49.678;6.560;2024-01-30T02:14:22;8.00;77.30
20091;DHT22;10205;49.678;6.560;2024-01-30T02:16:51;8.00;77.20
20091;DHT22;10205;49.678;6.560;2024-01-30T02:19:19;8.00;77.30
20091;DHT22;10205;49.678;6.560;2024-01-30T02:21:48;7.90;77.20
20091;DHT22;10205;49.678;6.560;2024-01-30T02:24:16;7.90;77.20
20091;DHT22;10205;49.678;6.560;2024-01-30T02:26:44;7.90;77.20
20091;DHT22;10205;49.678;6.560;2024-01-30T02:29:13;7.90;78.00
20091;DHT22;10205;49.678;6.560;2024-01-30T02:31:41;7.90;77.30
20091;DHT22;10205;49.678;6.560;2024-01-30T02:34:08;7.90;77.30
20091;DHT22;10205;49.678;6.560;2024-01-30T02:36:36;7.90;77.40
20091;DHT22;10205;49.678;6.560;2024-01-30T02:39:06;7.90;77.40
20091;DHT22;10205;49.678;6.560;2024-01-30T02:41:33;7.90;77.40
20091;DHT22;10205;49.678;6.560;2024-01-30T02:44:01;7.80;78.20
20091;DHT22;10205;49.678;6.560;2024-01-30T02:46:30;7.80;77.40
20091;DHT22;10205;49.678;6.560;2024-01-30T02:48:57;7.80;77.40
20091;DHT22;10205;49.678;6.560;2024-01-30T02:51:25;7.80;77.50
20091;DHT22;10205;49.678;6.560;2024-01-30T02:53:52;7.80;77.50
20091;DHT22;10205;49.678;6.560;2024-01-30T02:56:22;7.80;77.50
20091;DHT22;10205;49.678;6.560;2024-01-30T02:58:49;7.70;77.50
20091;DHT22;10205;49.678;6.560;2024-01-30T03:01:16;7.70;77.60
20091;DHT22;10205;49.678;6.560;2024-01-30T03:03:43;7.70;77.60
20091;DHT22;10205;49.678;6.560;2024-01-30T03:06:11;7.70;77.60
20091;DHT22;10205;49.678;6.560;2024-01-30T03:08:41;7.70;77.60
20091;DHT22;10205;49.678;6.560;2024-01-30T03:11:10;7.70;77.70
20091;DHT22;10205;49.678;6.560;2024-01-30T03:13:39;7.70;77.70
20091;DHT22;10205;49.678;6.560;2024-01-30T03:16:08;7.70;77.70
20091;DHT22;10205;49.678;6.560;2024-01-30T03:18:45;7.70;77.70
20091;DHT22;10205;49.678;6.560;2024-01-30T03:21:14;7.70;77.70
20091;DHT22;10205;49.678;6.560;2024-01-30T03:23:43;7.70;77.70
20091;DHT22;10205;49.678;6.560;2024-01-30T03:26:11;7.60;77.70
20091;DHT22;10205;49.678;6.560;2024-01-30T03:28:40;7.60;77.70
20091;DHT22;10205;49.678;6.560;2024-01-30T03:31:09;7.60;77.70
20091;DHT22;10205;49.678;6.560;2024-01-30T03:33:37;7.60;77.70
20091;DHT22;10205;49.678;6.560;2024-01-30T03:36:09;7.60;77.70
20091;DHT22;10205;49.678;6.560;2024-01-30T03:38:37;7.60;77.70
20091;DHT22;10205;49.678;6.560;2024-01-30T03:41:07;7.60;77.70
20091;DHT22;10205;49.678;6.560;2024-01-30T03:43:35;7.60;77.80
20091;DHT22;10205;49.678;6.560;2024-01-30T03:46:05;7.60;77.80
20091;DHT22;10205;49.678;6.560;2024-01-30T03:48:33;7.60;77.80
20091;DHT22;10205;49.678;6.560;2024-01-30T03:51:02;7.60;77.80
20091;DHT22;10205;49.678;6.560;2024-01-30T03:53:30;7.50;77.80
20091;DHT22;10205;49.678;6.560;2024-01-30T03:55:57;7.50;77.80
20091;DHT22;10205;49.678;6.560;2024-01-30T03:58:25;7.50;77.80
20091;DHT22;10205;49.678;6.560;2024-01-30T04:00:54;7.50;77.80
20091;DHT22;10205;49.678;6.560;2024-01-30T04:03:23;7.50;77.80
20091;DHT22;10205;49.678;6.560;2024-01-30T04:05:51;7.50;77.80
20091;DHT22;10205;49.678;6.560;2024-01-30T04:08:19;7.50;77.80
20091;DHT22;10205;49.678;6.560;2024-01-30T04:10:47;7.50;77.90
20091;DHT22;10205;49.678;6.560;2024-01-30T04:13:14;7.50;77.80
20091;DHT22;10205;49.678;6.560;2024-01-30T04:15:42;7.50;77.80
20091;DHT22;10205;49.678;6.560;2024-01-30T04:18:09;7.50;77.80
20091;DHT22;10205;49.678;6.560;2024-01-30T04:20:38;7.50;77.80
20091;DHT22;10205;49.678;6.560;2024-01-30T04:23:06;7.50;77.80
20091;DHT22;10205;49.678;6.560;2024-01-30T04:25:33;7.50;77.80
20091;DHT22;10205;49.678;6.560;2024-01-30T04:28:01;7.50;77.80
20091;DHT22;10205;49.678;6.560;2024-01-30T04:30:31;7.50;77.90
20091;DHT22;10205;49.678;6.560;2024-01-30T04:32:59;7.50;77.80
20091;DHT22;10205;49.678;6.560;2024-01-30T04:35:26;7.50;77.90
20091;DHT22;10205;49.678;6.560;2024-01-30T04:37:55;7.40;77.90
20091;DHT22;10205;49.678;6.560;2024-01-30T04:40:22;7.40;77.90
20091;DHT22;10205;49.678;6.560;2024-01-30T04:42:50;7.40;78.00
20091;DHT22;10205;49.678;6.560;2024-01-30T04:45:17;7.40;77.90
20091;DHT22;10205;49.678;6.560;2024-01-30T04:47:44;7.40;77.80
20091;DHT22;10205;49.678;6.560;2024-01-30T04:50:12;7.40;77.90
20091;DHT22;10205;49.678;6.560;2024-01-30T04:52:40;7.40;77.90
20091;DHT22;10205;49.678;6.560;2024-01-30T04:55:08;7.40;77.90
20091;DHT22;10205;49.678;6.560;2024-01-30T04:57:36;7.40;77.90
20091;DHT22;10205;49.678;6.560;2024-01-30T05:00:04;7.40;77.80
20091;DHT22;10205;49.678;6.560;2024-01-30T05:02:32;7.40;77.90
20091;DHT22;10205;49.678;6.560;2024-01-30T05:04:59;7.40;77.80
20091;DHT22;10205;49.678;6.560;2024-01-30T05:07:29;7.40;77.90
20091;DHT22;10205;49.678;6.560;2024-01-30T05:09:56;7.40;77.90
20091;DHT22;10205;49.678;6.560;2024-01-30T05:12:25;7.40;77.90
20091;DHT22;10205;49.678;6.560;2024-01-30T05:14:52;7.40;77.90
20091;DHT22;10205;49.678;6.560;2024-01-30T05:17:20;7.40;78.00
20091;DHT22;10205;49.678;6.560;2024-01-30T05:19:50;7.30;77.90
20091;DHT22;10205;49.678;6.560;2024-01-30T05:22:26;7.30;77.90
20091;DHT22;10205;49.678;6.560;2024-01-30T05:24:53;7.40;78.00
20091;DHT22;10205;49.678;6.560;2024-01-30T05:27:21;7.30;77.90
20091;DHT22;10205;49.678;6.560;2024-01-30T05:29:51;7.30;77.90
20091;DHT22;10205;49.678;6.560;2024-01-30T05:32:18;7.30;77.90
20091;DHT22;10205;49.678;6.560;2024-01-30T05:34:46;7.30;77.90
20091;DHT22;10205;49.678;6.560;2024-01-30T05:37:16;7.20;77.90
20091;DHT22;10205;49.678;6.560;2024-01-30T05:39:43;7.20;78.00
20091;DHT22;10205;49.678;6.560;2024-01-30T05:42:10;7.20;78.00
20091;DHT22;10205;49.678;6.560;2024-01-30T05:44:38;7.20;78.10
20091;DHT22;10205;49.678;6.560;2024-01-30T05:47:07;7.20;78.00
20091;DHT22;10205;49.678;6.560;2024-01-30T05:49:34;7.20;78.10
20091;DHT22;10205;49.678;6.560;2024-01-30T05:52:05;7.20;78.10
20091;DHT22;10205;49.678;6.560;2024-01-30T05:54:33;7.20;78.20
20091;DHT22;10205;49.678;6.560;2024-01-30T05:57:00;7.20;78.10
20091;DHT22;10205;49.678;6.560;2024-01-30T05:59:28;7.20;78.20
20091;DHT22;10205;49.678;6.560;2024-01-30T06:01:55;7.20;78.20
20091;DHT22;10205;49.678;6.560;2024-01-30T06:04:23;7.20;78.20
20091;DHT22;10205;49.678;6.560;2024-01-30T06:06:51;7.10;78.10
20091;DHT22;10205;49.678;6.560;2024-01-30T06:09:19;7.10;78.10
20091;DHT22;10205;49.678;6.560;2024-01-30T06:11:46;7.10;78.00
20091;DHT22;10205;49.678;6.560;2024-01-30T06:14:13;7.10;78.90
20091;DHT22;10205;49.678;6.560;2024-01-30T06:16:42;7.10;78.10
20091;DHT22;10205;49.678;6.560;2024-01-30T06:19:09;7.10;78.20
20091;DHT22;10205;49.678;6.560;2024-01-30T06:21:38;7.10;78.20
20091;DHT22;10205;49.678;6.560;2024-01-30T06:24:06;7.10;78.30
20091;DHT22;10205;49.678;6.560;2024-01-30T06:26:35;7.10;78.30
20091;DHT22;10205;49.678;6.560;2024-01-30T06:29:03;7.10;78.20
20091;DHT22;10205;49.678;6.560;2024-01-30T06:31:30;7.10;78.20
20091;DHT22;10205;49.678;6.560;2024-01-30T06:34:00;7.10;78.20
20091;DHT22;10205;49.678;6.560;2024-01-30T06:36:28;7.10;78.10
20091;DHT22;10205;49.678;6.560;2024-01-30T06:38:57;7.10;78.20
20091;DHT22;10205;49.678;6.560;2024-01-30T06:41:24;7.10;78.20
20091;DHT22;10205;49.678;6.560;2024-01-30T06:43:52;7.10;78.20
20091;DHT22;10205;49.678;6.560;2024-01-30T06:46:19;7.00;78.10
20091;DHT22;10205;49.678;6.560;2024-01-30T06:48:47;7.00;78.10
20091;DHT22;10205;49.678;6.560;2024-01-30T06:51:14;7.00;78.10
20091;DHT22;10205;49.678;6.560;2024-01-30T06:53:43;7.00;78.10
20091;DHT22;10205;49.678;6.560;2024-01-30T06:56:15;7.00;78.10
20091;DHT22;10205;49.678;6.560;2024-01-30T06:58:46;7.00;78.10
20091;DHT22;10205;49.678;6.560;2024-01-30T07:01:14;7.00;78.10
20091;DHT22;10205;49.678;6.560;2024-01-30T07:03:42;7.00;78.10
20091;DHT22;10205;49.678;6.560;2024-01-30T07:06:10;7.00;78.10
20091;DHT22;10205;49.678;6.560;2024-01-30T07:08:38;7.00;78.10
20091;DHT22;10205;49.678;6.560;2024-01-30T07:11:05;7.00;78.00
20091;DHT22;10205;49.678;6.560;2024-01-30T07:13:34;7.00;78.10
20091;DHT22;10205;49.678;6.560;2024-01-30T07:16:02;7.00;78.10
20091;DHT22;10205;49.678;6.560;2024-01-30T07:18:30;7.00;78.10
20091;DHT22;10205;49.678;6.560;2024-01-30T07:20:57;7.00;78.10
20091;DHT22;10205;49.678;6.560;2024-01-30T07:23:24;7.00;78.10
20091;DHT22;10205;49.678;6.560;2024-01-30T07:25:52;6.90;78.00
20091;DHT22;10205;49.678;6.560;2024-01-30T07:28:20;7.00;78.00
20091;DHT22;10205;49.678;6.560;2024-01-30T07:30:48;6.90;78.00
20091;DHT22;10205;49.678;6.560;2024-01-30T07:33:16;6.90;78.10
20091;DHT22;10205;49.678;6.560;2024-01-30T07:35:45;6.90;78.10
20091;DHT22;10205;49.678;6.560;2024-01-30T07:38:13;6.90;78.10
20091;DHT22;10205;49.678;6.560;2024-01-30T07:40:42;6.90;78.00
20091;DHT22;10205;49.678;6.560;2024-01-30T07:43:09;6.90;77.90
20091;DHT22;10205;49.678;6.560;2024-01-30T07:45:37;6.90;77.90
20091;DHT22;10205;49.678;6.560;2024-01-30T07:48:08;6.80;77.80
20091;DHT22;10205;49.678;6.560;2024-01-30T07:50:38;6.80;77.90
20091;DHT22;10205;49.678;6.560;2024-01-30T07:53:05;6.80;77.90
20091;DHT22;10205;49.678;6.560;2024-01-30T07:55:32;6.80;78.00
20091;DHT22;10205;49.678;6.560;2024-01-30T07:58:01;6.80;78.00
20091;DHT22;10205;49.678;6.560;2024-01-30T08:00:30;6.80;78.10
20091;DHT22;10205;49.678;6.560;2024-01-30T08:02:58;6.70;78.10
20091;DHT22;10205;49.678;6.560;2024-01-30T08:05:31;6.70;78.20
20091;DHT22;10205;49.678;6.560;2024-01-30T08:08:01;6.70;78.20
20091;DHT22;10205;49.678;6.560;2024-01-30T08:10:31;6.70;78.30
20091;DHT22;10205;49.678;6.560;2024-01-30T08:12:59;6.70;78.40
20091;DHT22;10205;49.678;6.560;2024-01-30T08:15:26;6.70;78.50
20091;DHT22;10205;49.678;6.560;2024-01-30T08:17:54;6.70;78.50
20091;DHT22;10205;49.678;6.560;2024-01-30T08:20:23;6.70;78.50
20091;DHT22;10205;49.678;6.560;2024-01-30T08:22:53;6.70;78.60
20091;DHT22;10205;49.678;6.560;2024-01-30T08:25:21;6.70;78.60
20091;DHT22;10205;49.678;6.560;2024-01-30T08:27:50;6.70;78.50
20091;DHT22;10205;49.678;6.560;2024-01-30T08:30:19;6.70;78.50
20091;DHT22;10205;49.678;6.560;2024-01-30T08:32:46;6.70;78.50
20091;DHT22;10205;49.678;6.560;2024-01-30T08:35:14;6.70;78.50
20091;DHT22;10205;49.678;6.560;2024-01-30T08:37:41;6.70;78.50
20091;DHT22;10205;49.678;6.560;2024-01-30T08:40:10;6.70;78.50
20091;DHT22;10205;49.678;6.560;2024-01-30T08:42:38;6.70;78.50
20091;DHT22;10205;49.678;6.560;2024-01-30T08:45:07;6.70;78.50
20091;DHT22;10205;49.678;6.560;2024-01-30T08:47:35;6.70;79.20
20091;DHT22;10205;49.678;6.560;2024-01-30T08:50:04;6.70;78.50
20091;DHT22;10205;49.678;6.560;2024-01-30T08:52:32;6.70;78.60
20091;DHT22;10205;49.678;6.560;2024-01-30T08:54:59;6.70;78.60
20091;DHT22;10205;49.678;6.560;2024-01-30T08:57:32;6.70;78.60
20091;DHT22;10205;49.678;6.560;2024-01-30T09:00:11;6.70;78.60
20091;DHT22;10205;49.678;6.560;2024-01-30T09:02:39;6.70;78.80
20091;DHT22;10205;49.678;6.560;2024-01-30T09:05:07;6.70;78.80
20091;DHT22;10205;49.678;6.560;2024-01-30T09:07:34;6.70;78.80
20091;DHT22;10205;49.678;6.560;2024-01-30T09:10:02;6.70;78.80
20091;DHT22;10205;49.678;6.560;2024-01-30T09:12:31;6.70;78.90
20091;DHT22;10205;49.678;6.560;2024-01-30T09:14:59;6.70;79.00
20091;DHT22;10205;49.678;6.560;2024-01-30T09:17:27;6.70;79.00
20091;DHT22;10205;49.678;6.560;2024-01-30T09:19:55;6.70;79.00
20091;DHT22;10205;49.678;6.560;2024-01-30T09:22:22;6.70;79.00
20091;DHT22;10205;49.678;6.560;2024-01-30T09:24:50;6.70;79.20
20091;DHT22;10205;49.678;6.560;2024-01-30T09:27:17;6.70;79.30
20091;DHT22;10205;49.678;6.560;2024-01-30T09:29:47;6.70;79.40
20091;DHT22;10205;49.678;6.560;2024-01-30T09:32:14;6.70;79.50
20091;DHT22;10205;49.678;6.560;2024-01-30T09:34:42;6.70;79.50
20091;DHT22;10205;49.678;6.560;2024-01-30T09:37:10;6.70;79.60
20091;DHT22;10205;49.678;6.560;2024-01-30T09:39:38;6.70;79.60
20091;DHT22;10205;49.678;6.560;2024-01-30T09:42:11;6.80;79.70
20091;DHT22;10205;49.678;6.560;2024-01-30T09:45:00;6.80;79.70
20091;DHT22;10205;49.678;6.560;2024-01-30T09:47:32;6.80;79.60
20091;DHT22;10205;49.678;6.560;2024-01-30T09:50:06;6.80;79.70
20091;DHT22;10205;49.678;6.560;2024-01-30T09:52:34;6.90;79.80
20091;DHT22;10205;49.678;6.560;2024-01-30T09:55:02;6.90;79.90
20091;DHT22;10205;49.678;6.560;2024-01-30T09:57:30;6.90;79.90
20091;DHT22;10205;49.678;6.560;2024-01-30T10:00:00;6.90;79.90
20091;DHT22;10205;49.678;6.560;2024-01-30T10:02:27;7.00;79.90
20091;DHT22;10205;49.678;6.560;2024-01-30T10:04:54;7.00;79.90
20091;DHT22;10205;49.678;6.560;2024-01-30T10:07:26;7.00;79.90
20091;DHT22;10205;49.678;6.560;2024-01-30T10:09:53;7.00;79.90
20091;DHT22;10205;49.678;6.560;2024-01-30T10:12:22;7.10;80.00
20091;DHT22;10205;49.678;6.560;2024-01-30T10:14:49;7.10;80.10
20091;DHT22;10205;49.678;6.560;2024-01-30T10:17:26;7.10;80.10
20091;DHT22;10205;49.678;6.560;2024-01-30T10:19:55;7.20;80.30
20091;DHT22;10205;49.678;6.560;2024-01-30T10:22:25;7.20;80.40
20091;DHT22;10205;49.678;6.560;2024-01-30T10:24:53;7.20;80.30
20091;DHT22;10205;49.678;6.560;2024-01-30T10:27:25;7.30;80.30
20091;DHT22;10205;49.678;6.560;2024-01-30T10:29:53;7.30;80.30
20091;DHT22;10205;49.678;6.560;2024-01-30T10:32:21;7.30;80.10
20091;DHT22;10205;49.678;6.560;2024-01-30T10:34:51;7.40;80.20
20091;DHT22;10205;49.678;6.560;2024-01-30T10:37:19;7.40;80.30
20091;DHT22;10205;49.678;6.560;2024-01-30T10:39:53;7.50;80.40
20091;DHT22;10205;49.678;6.560;2024-01-30T10:42:31;7.50;80.50
20091;DHT22;10205;49.678;6.560;2024-01-30T10:45:05;7.50;80.60
20091;DHT22;10205;49.678;6.560;2024-01-30T10:47:36;7.60;80.60
20091;DHT22;10205;49.678;6.560;2024-01-30T10:50:10;7.60;80.60
20091;DHT22;10205;49.678;6.560;2024-01-30T10:52:39;7.60;80.50
20091;DHT22;10205;49.678;6.560;2024-01-30T10:55:10;7.70;80.40
20091;DHT22;10205;49.678;6.560;2024-01-30T10:57:39;7.70;80.30
20091;DHT22;10205;49.678;6.560;2024-01-30T11:00:08;7.80;80.60
20091;DHT22;10205;49.678;6.560;2024-01-30T11:02:39;7.80;80.70
20091;DHT22;10205;49.678;6.560;2024-01-30T11:05:09;7.90;80.80
20091;DHT22;10205;49.678;6.560;2024-01-30T11:07:39;7.90;80.90
20091;DHT22;10205;49.678;6.560;2024-01-30T11:10:09;8.00;81.10
20091;DHT22;10205;49.678;6.560;2024-01-30T11:12:40;8.10;81.10
20091;DHT22;10205;49.678;6.560;2024-01-30T11:15:10;8.10;81.00
20091;DHT22;10205;49.678;6.560;2024-01-30T11:17:45;8.20;80.90
20091;DHT22;10205;49.678;6.560;2024-01-30T11:20:25;8.20;81.50
20091;DHT22;10205;49.678;6.560;2024-01-30T11:22:56;8.30;80.70
20091;DHT22;10205;49.678;6.560;2024-01-30T11:25:24;8.30;80.70
20091;DHT22;10205;49.678;6.560;2024-01-30T11:27:55;8.40;80.70
20091;DHT22;10205;49.678;6.560;2024-01-30T11:30:26;8.50;80.60
20091;DHT22;10205;49.678;6.560;2024-01-30T11:33:02;8.50;80.50
20091;DHT22;10205;49.678;6.560;2024-01-30T11:35:34;8.60;80.60
20091;DHT22;10205;49.678;6.560;2024-01-30T11:38:05;8.70;80.60
20091;DHT22;10205;49.678;6.560;2024-01-30T11:40:34;8.70;80.50
20091;DHT22;10205;49.678;6.560;2024-01-30T11:43:05;8.80;80.40
20091;DHT22;10205;49.678;6.560;2024-01-30T11:45:35;8.90;81.20
20091;DHT22;10205;49.678;6.560;2024-01-30T11:48:04;8.90;80.30
20091;DHT22;10205;49.678;6.560;2024-01-30T11:50:38;9.00;80.20
20091;DHT22;10205;49.678;6.560;2024-01-30T11:53:10;9.00;80.00
20091;DHT22;10205;49.678;6.560;2024-01-30T11:55:38;9.10;80.00
20091;DHT22;10205;49.678;6.560;2024-01-30T11:58:07;9.10;80.00
20091;DHT22;10205;49.678;6.560;2024-01-30T12:00:35;9.20;80.10
20091;DHT22;10205;49.678;6.560;2024-01-30T12:03:04;9.20;80.00
20091;DHT22;10205;49.678;6.560;2024-01-30T12:05:34;9.30;80.00
20091;DHT22;10205;49.678;6.560;2024-01-30T12:08:15;9.30;79.70
20091;DHT22;10205;49.678;6.560;2024-01-30T12:10:43;9.40;79.60
20091;DHT22;10205;49.678;6.560;2024-01-30T12:13:12;9.40;79.50
20091;DHT22;10205;49.678;6.560;2024-01-30T12:15:41;9.50;79.30
20091;DHT22;10205;49.678;6.560;2024-01-30T12:18:10;9.50;79.20
20091;DHT22;10205;49.678;6.560;2024-01-30T12:20:40;9.60;79.20
20091;DHT22;10205;49.678;6.560;2024-01-30T12:23:09;9.60;79.20
20091;DHT22;10205;49.678;6.560;2024-01-30T12:25:46;9.60;80.00
20091;DHT22;10205;49.678;6.560;2024-01-30T12:28:13;9.70;79.10
20091;DHT22;10205;49.678;6.560;2024-01-30T12:30:41;9.70;78.90
20091;DHT22;10205;49.678;6.560;2024-01-30T12:33:09;9.70;78.70
20091;DHT22;10205;49.678;6.560;2024-01-30T12:35:47;9.80;78.80
20091;DHT22;10205;49.678;6.560;2024-01-30T12:38:15;9.80;79.00
20091;DHT22;10205;49.678;6.560;2024-01-30T12:40:42;9.80;79.10
20091;DHT22;10205;49.678;6.560;2024-01-30T12:43:10;9.90;79.10
20091;DHT22;10205;49.678;6.560;2024-01-30T12:45:44;9.90;79.10
20091;DHT22;10205;49.678;6.560;2024-01-30T12:48:11;10.00;79.10
20091;DHT22;10205;49.678;6.560;2024-01-30T12:50:38;10.00;79.40
20091;DHT22;10205;49.678;6.560;2024-01-30T12:53:07;10.10;79.00
20091;DHT22;10205;49.678;6.560;2024-01-30T12:55:34;10.10;79.00
20091;DHT22;10205;49.678;6.560;2024-01-30T12:58:02;10.10;79.00
20091;DHT22;10205;49.678;6.560;2024-01-30T13:00:29;10.20;78.90
20091;DHT22;10205;49.678;6.560;2024-01-30T13:02:58;10.20;78.80
20091;DHT22;10205;49.678;6.560;2024-01-30T13:05:26;10.20;78.80
20091;DHT22;10205;49.678;6.560;2024-01-30T13:07:54;10.20;78.60
20091;DHT22;10205;49.678;6.560;2024-01-30T13:10:24;10.30;78.40
20091;DHT22;10205;49.678;6.560;2024-01-30T13:12:53;10.30;78.40
20091;DHT22;10205;49.678;6.560;2024-01-30T13:15:22;10.40;78.50
20091;DHT22;10205;49.678;6.560;2024-01-30T13:17:50;10.40;78.50
20091;DHT22;10205;49.678;6.560;2024-01-30T13:20:21;10.40;78.50
20091;DHT22;10205;49.678;6.560;2024-01-30T13:22:50;10.50;78.40
20091;DHT22;10205;49.678;6.560;2024-01-30T13:25:19;10.50;78.50
20091;DHT22;10205;49.678;6.560;2024-01-30T13:27:47;10.50;78.50
20091;DHT22;10205;49.678;6.560;2024-01-30T13:30:15;10.50;78.40
20091;DHT22;10205;49.678;6.560;2024-01-30T13:32:44;10.60;78.40
20091;DHT22;10205;49.678;6.560;2024-01-30T13:35:11;10.60;78.50
20091;DHT22;10205;49.678;6.560;2024-01-30T13:37:40;10.60;78.50
20091;DHT22;10205;49.678;6.560;2024-01-30T13:40:08;10.60;78.50
20091;DHT22;10205;49.678;6.560;2024-01-30T13:42:36;10.70;78.70
20091;DHT22;10205;49.678;6.560;2024-01-30T13:45:05;10.70;78.60
20091;DHT22;10205;49.678;6.560;2024-01-30T13:47:35;10.70;78.40
20091;DHT22;10205;49.678;6.560;2024-01-30T13:50:04;10.80;78.40
20091;DHT22;10205;49.678;6.560;2024-01-30T13:52:33;10.80;78.40
20091;DHT22;10205;49.678;6.560;2024-01-30T13:55:01;10.80;78.30
20091;DHT22;10205;49.678;6.560;2024-01-30T13:57:30;10.80;78.50
20091;DHT22;10205;49.678;6.560;2024-01-30T14:00:02;10.90;78.40
20091;DHT22;10205;49.678;6.560;2024-01-30T14:02:33;10.90;78.30
20091;DHT22;10205;49.678;6.560;2024-01-30T14:05:00;10.90;78.30
20091;DHT22;10205;49.678;6.560;2024-01-30T14:07:29;11.00;78.30
20091;DHT22;10205;49.678;6.560;2024-01-30T14:09:58;11.00;78.30
20091;DHT22;10205;49.678;6.560;2024-01-30T14:12:25;11.00;78.30
20091;DHT22;10205;49.678;6.560;2024-01-30T14:14:53;11.00;78.40
20091;DHT22;10205;49.678;6.560;2024-01-30T14:17:21;11.00;79.20
20091;DHT22;10205;49.678;6.560;2024-01-30T14:19:50;11.10;78.30
20091;DHT22;10205;49.678;6.560;2024-01-30T14:22:17;11.10;78.20
20091;DHT22;10205;49.678;6.560;2024-01-30T14:24:44;11.20;78.40
20091;DHT22;10205;49.678;6.560;2024-01-30T14:27:13;11.20;79.00
20091;DHT22;10205;49.678;6.560;2024-01-30T14:29:41;11.20;78.20
20091;DHT22;10205;49.678;6.560;2024-01-30T14:32:11;11.20;78.00
20091;DHT22;10205;49.678;6.560;2024-01-30T14:34:41;11.30;78.00
20091;DHT22;10205;49.678;6.560;2024-01-30T14:37:11;11.30;77.80
20091;DHT22;10205;49.678;6.560;2024-01-30T14:39:38;11.30;77.70
20091;DHT22;10205;49.678;6.560;2024-01-30T14:42:06;11.30;77.80
20091;DHT22;10205;49.678;6.560;2024-01-30T14:44:34;11.30;77.90
20091;DHT22;10205;49.678;6.560;2024-01-30T14:47:01;11.30;77.80
20091;DHT22;10205;49.678;6.560;2024-01-30T14:49:29;11.30;77.80
20091;DHT22;10205;49.678;6.560;2024-01-30T14:51:56;11.30;78.00
20091;DHT22;10205;49.678;6.560;2024-01-30T14:54:26;11.30;78.20
20091;DHT22;10205;49.678;6.560;2024-01-30T14:56:53;11.40;78.20
20091;DHT22;10205;49.678;6.560;2024-01-30T14:59:22;11.40;78.20
20091;DHT22;10205;49.678;6.560;2024-01-30T15:01:50;11.40;78.10
20091;DHT22;10205;49.678;6.560;2024-01-30T15:04:18;11.40;78.00
20091;DHT22;10205;49.678;6.560;2024-01-30T15:06:46;11.40;78.10
20091;DHT22;10205;49.678;6.560;2024-01-30T15:09:14;11.50;78.30
20091;DHT22;10205;49.678;6.560;2024-01-30T15:11:44;11.50;78.20
20091;DHT22;10205;49.678;6.560;2024-01-30T15:14:13;11.50;78.10
20091;DHT22;10205;49.678;6.560;2024-01-30T15:16:43;11.50;78.00
20091;DHT22;10205;49.678;6.560;2024-01-30T15:19:10;11.50;78.10
20091;DHT22;10205;49.678;6.560;2024-01-30T15:21:38;11.50;78.00
20091;DHT22;10205;49.678;6.560;2024-01-30T15:24:08;11.60;78.80
20091;DHT22;10205;49.678;6.560;2024-01-30T15:26:51;11.60;77.80
20091;DHT22;10205;49.678;6.560;2024-01-30T15:29:19;11.60;77.80
20091;DHT22;10205;49.678;6.560;2024-01-30T15:31:49;11.70;77.80
20091;DHT22;10205;49.678;6.560;2024-01-30T15:34:16;11.70;77.80
20091;DHT22;10205;49.678;6.560;2024-01-30T15:36:43;11.70;77.90
20091;DHT22;10205;49.678;6.560;2024-01-30T15:39:11;11.70;77.90
20091;DHT22;10205;49.678;6.560;2024-01-30T15:41:41;11.70;77.80
20091;DHT22;10205;49.678;6.560;2024-01-30T15:44:09;11.70;77.90
20091;DHT22;10205;49.678;6.560;2024-01-30T15:46:36;11.70;78.90
20091;DHT22;10205;49.678;6.560;2024-01-30T15:49:04;11.70;79.10
20091;DHT22;10205;49.678;6.560;2024-01-30T15:51:34;11.70;78.30